Terminal Aerodrome Forecast
Issued by NWS

Current Version | Previous Version | Text Only | Print | Product List | Glossary Off
Versions: 1 2 3 4 5 6 7 8 9 10 11 12 13 14 15 16 17 18 19 20 21

000
FTUS41 KILN 171500 AAA
TAFLUK
TAF AMD
KLUK 171503Z 1715/1812 22012G18KT P6SM FEW020
     FM171700 24011G20KT P6SM SCT040 BKN250
      TEMPO 1722/1724 OVC040
     FM180000 28008KT P6SM OVC028=

USA.gov is the U.S. government's official web portal to all federal, state and local government web resources and services.